Time;durP1;ratioP1;P1;durP2;ratioP2;P2;SDS_P1;SDS_P2;PMS_P1;PMS_P2;Temp;Humidity;BMP_temperature;BMP_pressure;BME280_temperature;BME280_humidity;BME280_pressure;Samples;Min_cycle;Max_cycle;Signal;HPM_P1;HPM_P2
2023/09/25 00:01:10;;;;;;;4.78;1.42;;;13.20;99.90;;;;;;4841629;29;20045;-80
2023/09/25 00:03:36;;;;;;;1.17;0.60;;;13.20;99.90;;;;;;4816924;29;20043;-79
2023/09/25 00:06:02;;;;;;;3.53;0.93;;;13.20;99.90;;;;;;4834172;29;20074;-77
2023/09/25 00:08:28;;;;;;;3.80;1.25;;;13.10;99.90;;;;;;4823977;29;20046;-80
2023/09/25 00:10:54;;;;;;;3.20;1.08;;;14.70;99.90;;;;;;4823543;29;20055;-79
2023/09/25 00:13:20;;;;;;;3.38;1.58;;;13.20;99.90;;;;;;4826171;29;20058;-80
2023/09/25 00:15:46;;;;;;;2.70;1.30;;;13.10;99.90;;;;;;4817677;29;20046;-75
2023/09/25 00:18:13;;;;;;;2.90;1.25;;;13.20;99.90;;;;;;4804178;29;20495;-80
2023/09/25 00:20:40;;;;;;;6.53;1.30;;;13.20;99.90;;;;;;4826832;29;20055;-79
2023/09/25 00:23:06;;;;;;;1.35;1.00;;;13.20;99.90;;;;;;4810395;29;20503;-77
2023/09/25 00:25:32;;;;;;;1.70;1.42;;;13.10;99.90;;;;;;4830853;29;20052;-78
2023/09/25 00:27:59;;;;;;;2.00;0.90;;;13.10;99.90;;;;;;4830525;29;20113;-78
2023/09/25 00:30:25;;;;;;;1.15;1.05;;;14.50;99.90;;;;;;4847143;29;20061;-77
2023/09/25 00:32:51;;;;;;;2.28;1.30;;;13.30;99.90;;;;;;4817268;29;20090;-78
2023/09/25 00:35:19;;;;;;;2.88;1.10;;;13.10;99.90;;;;;;4806535;29;20046;-78
2023/09/25 00:37:46;;;;;;;2.30;1.17;;;13.20;99.90;;;;;;4817835;29;20046;-78
2023/09/25 00:40:18;;;;;;;1.77;1.17;;;13.20;99.90;;;;;;4818831;29;20511;-78
2023/09/25 00:42:53;;;;;;;2.05;1.20;;;13.10;99.90;;;;;;4803118;29;20051;-79
2023/09/25 00:45:20;;;;;;;2.30;1.35;;;13.10;99.90;;;;;;4817836;29;20081;-77
2023/09/25 00:47:46;;;;;;;4.30;1.52;;;13.10;99.90;;;;;;4822991;29;20547;-77
2023/09/25 00:50:12;;;;;;;1.95;1.20;;;13.10;99.90;;;;;;4827520;29;20047;-79
2023/09/25 00:52:45;;;;;;;2.70;1.50;;;13.10;99.90;;;;;;4831536;29;20054;-77
2023/09/25 00:55:15;;;;;;;3.38;1.55;;;13.10;99.90;;;;;;4833162;29;20452;-77
2023/09/25 00:57:41;;;;;;;2.90;1.02;;;13.10;99.90;;;;;;4823149;29;20047;-78
2023/09/25 01:00:11;;;;;;;2.05;1.10;;;13.10;99.90;;;;;;4838966;29;20138;-80
2023/09/25 01:02:38;;;;;;;1.50;1.40;;;13.10;99.90;;;;;;4796062;29;20522;-79
2023/09/25 01:05:08;;;;;;;2.20;1.15;;;13.10;99.90;;;;;;4845498;29;20063;-78
2023/09/25 01:07:35;;;;;;;5.07;1.58;;;13.00;99.90;;;;;;4818667;29;20055;-79
2023/09/25 01:10:15;;;;;;;4.22;1.58;;;13.10;99.90;;;;;;4827059;29;20050;-77
2023/09/25 01:12:42;;;;;;;4.50;1.65;;;13.00;99.90;;;;;;4837247;29;20480;-80
2023/09/25 01:15:08;;;;;;;3.17;1.27;;;13.00;99.90;;;;;;4814467;29;20103;-77
2023/09/25 01:17:34;;;;;;;4.20;1.15;;;13.00;99.90;;;;;;4825383;29;20512;-77
2023/09/25 01:20:01;;;;;;;1.58;1.23;;;13.00;99.90;;;;;;4802357;29;20455;-77
2023/09/25 01:22:27;;;;;;;2.55;1.42;;;13.00;99.90;;;;;;4818000;29;20054;-78
2023/09/25 01:24:53;;;;;;;1.50;1.15;;;12.90;99.90;;;;;;4831657;29;20047;-78
2023/09/25 01:27:19;;;;;;;1.30;1.17;;;12.90;99.90;;;;;;4831823;29;20051;-77
2023/09/25 01:29:45;;;;;;;2.65;1.20;;;12.90;99.90;;;;;;4834334;29;20157;-77
2023/09/25 01:32:12;;;;;;;3.42;1.80;;;12.90;99.90;;;;;;4829923;29;20054;-77
2023/09/25 01:34:37;;;;;;;3.55;1.80;;;13.00;99.90;;;;;;4831604;29;20042;-78
2023/09/25 01:37:04;;;;;;;1.75;1.38;;;12.90;99.90;;;;;;4802676;29;20057;-77
2023/09/25 01:39:35;;;;;;;2.05;1.48;;;12.90;99.90;;;;;;4830920;29;20145;-79
2023/09/25 01:42:01;;;;;;;1.52;1.33;;;12.90;99.90;;;;;;4817289;29;20042;-78
2023/09/25 01:44:28;;;;;;;2.20;1.50;;;12.90;99.90;;;;;;4802387;29;20055;-80
2023/09/25 01:46:55;;;;;;;2.20;1.40;;;12.80;99.90;;;;;;4815589;29;20138;-78
2023/09/25 01:49:20;;;;;;;3.13;1.20;;;12.80;99.90;;;;;;4806979;29;20073;-80
2023/09/25 01:51:46;;;;;;;1.75;1.45;;;14.40;99.90;;;;;;4796324;29;20396;-78
2023/09/25 01:54:12;;;;;;;5.60;1.90;;;12.80;99.90;;;;;;4849396;29;20043;-79
2023/09/25 01:56:37;;;;;;;2.45;1.20;;;11.40;99.90;;;;;;4833192;29;20053;-79
2023/09/25 01:59:03;;;;;;;4.07;1.70;;;12.70;99.90;;;;;;4825888;29;20043;-79
2023/09/25 02:01:29;;;;;;;4.80;1.80;;;12.70;99.90;;;;;;4828862;29;20145;-78
2023/09/25 02:03:55;;;;;;;3.80;1.98;;;12.70;99.90;;;;;;4833033;29;20046;-80
2023/09/25 02:06:21;;;;;;;2.00;1.35;;;13.90;99.90;;;;;;4846700;29;20785;-77
2023/09/25 02:08:47;;;;;;;3.17;1.80;;;12.60;99.90;;;;;;4817529;29;20050;-78
2023/09/25 02:11:13;;;;;;;2.53;1.80;;;12.60;99.90;;;;;;4805417;29;20058;-77
2023/09/25 02:13:38;;;;;;;3.42;1.73;;;12.60;99.90;;;;;;4804179;29;20556;-78
2023/09/25 02:16:04;;;;;;;3.13;1.80;;;14.20;99.90;;;;;;4804527;29;20054;-80
2023/09/25 02:18:30;;;;;;;3.38;1.80;;;12.10;99.90;;;;;;4835984;29;20038;-79
2023/09/25 02:20:55;;;;;;;3.10;1.73;;;14.00;99.90;;;;;;4835112;29;20050;-78
2023/09/25 02:23:21;;;;;;;2.33;1.60;;;12.60;99.90;;;;;;4833936;29;20130;-78
2023/09/25 02:25:46;;;;;;;2.90;1.77;;;12.60;99.90;;;;;;4810485;29;20119;-78
2023/09/25 02:28:12;;;;;;;2.08;1.70;;;12.30;99.90;;;;;;4825079;29;20054;-79
2023/09/25 02:30:38;;;;;;;5.57;1.95;;;13.90;99.90;;;;;;4817618;29;20051;-78
2023/09/25 02:33:04;;;;;;;3.10;2.15;;;11.60;99.90;;;;;;4820430;29;20157;-79
2023/09/25 02:35:31;;;;;;;4.65;1.70;;;12.50;99.90;;;;;;4803721;29;20098;-77
2023/09/25 02:37:57;;;;;;;3.13;2.13;;;12.50;99.90;;;;;;4821127;29;20140;-80
2023/09/25 02:40:24;;;;;;;2.50;1.67;;;12.50;99.90;;;;;;4838869;29;20141;-79
2023/09/25 02:42:50;;;;;;;2.75;1.70;;;12.40;99.90;;;;;;4819039;29;20058;-77
2023/09/25 02:45:16;;;;;;;1.52;1.38;;;12.40;99.90;;;;;;4819881;29;20418;-80
2023/09/25 02:47:42;;;;;;;4.07;1.90;;;12.40;99.90;;;;;;4834441;29;20047;-78
2023/09/25 02:50:08;;;;;;;6.88;2.03;;;12.40;99.90;;;;;;4819235;29;20053;-80
2023/09/25 02:52:34;;;;;;;4.25;2.00;;;12.40;99.90;;;;;;4835708;29;20046;-79
2023/09/25 02:55:00;;;;;;;4.38;2.08;;;12.40;99.90;;;;;;4832636;29;20560;-78
2023/09/25 02:57:25;;;;;;;2.80;2.00;;;12.40;99.90;;;;;;4805549;29;20410;-78
2023/09/25 02:59:51;;;;;;;2.22;1.48;;;12.40;99.90;;;;;;4804387;29;20054;-79
2023/09/25 03:02:18;;;;;;;3.40;1.85;;;12.40;99.90;;;;;;4835971;29;20050;-81
2023/09/25 03:04:44;;;;;;;4.05;1.80;;;12.40;99.90;;;;;;4817153;29;20058;-78
2023/09/25 03:07:10;;;;;;;13.13;2.00;;;12.40;99.90;;;;;;4804334;29;20114;-79
2023/09/25 03:09:35;;;;;;;4.93;1.88;;;12.40;99.90;;;;;;4854182;29;20043;-78
2023/09/25 03:12:02;;;;;;;3.90;2.08;;;12.40;99.90;;;;;;4845982;29;20066;-80
2023/09/25 03:14:28;;;;;;;3.17;1.52;;;12.60;99.90;;;;;;4828807;29;20050;-78
2023/09/25 03:16:53;;;;;;;2.50;1.70;;;13.40;99.90;;;;;;4839722;29;20049;-78
2023/09/25 03:19:19;;;;;;;1.40;1.30;;;12.40;99.90;;;;;;4835261;29;20042;-78
2023/09/25 03:21:45;;;;;;;2.00;1.80;;;12.40;99.90;;;;;;4841960;29;20491;-77
2023/09/25 03:24:11;;;;;;;3.45;1.83;;;12.40;99.90;;;;;;4803573;29;20046;-79
2023/09/25 03:26:40;;;;;;;2.88;1.52;;;12.40;99.90;;;;;;4803198;29;20563;-77
2023/09/25 03:29:06;;;;;;;3.20;2.03;;;12.40;99.90;;;;;;4813492;29;20474;-78
2023/09/25 03:31:33;;;;;;;4.05;2.00;;;12.40;99.90;;;;;;4830152;29;20056;-78
2023/09/25 03:33:59;;;;;;;3.95;1.52;;;12.40;99.90;;;;;;4801579;29;20050;-80
2023/09/25 03:36:25;;;;;;;1.95;1.70;;;12.70;99.90;;;;;;4832557;29;20462;-80
2023/09/25 03:38:50;;;;;;;2.90;1.85;;;12.30;99.90;;;;;;4831628;29;20141;-79
2023/09/25 03:41:16;;;;;;;4.15;1.83;;;12.30;99.90;;;;;;4819987;29;20064;-79
2023/09/25 03:43:42;;;;;;;2.70;1.83;;;12.30;99.90;;;;;;4831924;29;20436;-78
2023/09/25 03:46:07;;;;;;;2.40;1.88;;;12.30;99.90;;;;;;4818332;29;20562;-79
2023/09/25 03:48:33;;;;;;;4.93;1.60;;;12.30;99.90;;;;;;4829721;29;20046;-77
2023/09/25 03:50:59;;;;;;;2.40;1.80;;;14.10;99.90;;;;;;4824284;29;20150;-79
2023/09/25 03:53:24;;;;;;;3.58;1.60;;;12.30;99.90;;;;;;4847635;29;20047;-80
2023/09/25 03:55:50;;;;;;;4.30;1.55;;;13.10;99.90;;;;;;4818176;29;20038;-79
2023/09/25 03:58:16;;;;;;;2.78;1.70;;;12.40;99.90;;;;;;4805238;29;20050;-79
2023/09/25 04:00:42;;;;;;;6.45;2.00;;;12.30;99.90;;;;;;4818150;29;20047;-77
2023/09/25 04:03:07;;;;;;;2.35;1.40;;;12.30;99.90;;;;;;4816789;29;20038;-78
2023/09/25 04:05:33;;;;;;;3.65;1.90;;;12.70;99.90;;;;;;4831884;29;20093;-79
2023/09/25 04:08:00;;;;;;;2.92;1.83;;;12.30;99.90;;;;;;4821212;29;20050;-78
2023/09/25 04:10:27;;;;;;;2.75;1.95;;;12.30;99.90;;;;;;4797716;29;20526;-79
2023/09/25 04:12:53;;;;;;;4.30;2.10;;;13.00;99.90;;;;;;4806926;29;20082;-79
2023/09/25 04:15:22;;;;;;;4.65;2.20;;;13.00;99.90;;;;;;4801756;29;20042;-80
2023/09/25 04:17:50;;;;;;;3.67;1.95;;;12.20;99.90;;;;;;4814107;29;20054;-78
2023/09/25 04:20:25;;;;;;;2.70;2.10;;;12.30;99.90;;;;;;4817484;29;20084;-77
2023/09/25 04:22:57;;;;;;;2.83;1.95;;;12.50;99.90;;;;;;4832703;29;20400;-80
2023/09/25 04:25:24;;;;;;;1.65;1.55;;;13.10;99.90;;;;;;4818888;29;20046;-78
2023/09/25 04:27:54;;;;;;;2.70;1.90;;;12.90;99.90;;;;;;4828678;29;20663;-80
2023/09/25 04:30:20;;;;;;;3.63;2.10;;;12.20;99.90;;;;;;4830407;29;20050;-80
2023/09/25 04:32:48;;;;;;;6.35;2.55;;;12.30;99.90;;;;;;4831579;29;20057;-80
2023/09/25 04:35:15;;;;;;;3.58;1.90;;;12.30;99.90;;;;;;4844838;29;20098;-80
2023/09/25 04:37:42;;;;;;;3.45;1.77;;;12.20;99.90;;;;;;4819480;29;20078;-77
2023/09/25 04:40:14;;;;;;;3.80;2.03;;;12.20;99.90;;;;;;4828303;29;20046;-79
2023/09/25 04:42:41;;;;;;;2.97;2.00;;;12.20;99.90;;;;;;4827558;29;20050;-81
2023/09/25 04:45:12;;;;;;;2.03;1.83;;;12.30;99.90;;;;;;4809398;29;20042;-80
2023/09/25 04:47:42;;;;;;;4.88;2.05;;;12.20;99.90;;;;;;4817284;29;20107;-80
2023/09/25 04:50:09;;;;;;;1.98;1.77;;;12.20;99.90;;;;;;4836980;29;20177;-80
2023/09/25 04:52:35;;;;;;;4.75;2.05;;;12.20;99.90;;;;;;4831657;29;20050;-81
2023/09/25 04:55:12;;;;;;;4.80;2.08;;;12.20;99.90;;;;;;4831681;29;20038;-79
2023/09/25 04:57:46;;;;;;;3.10;1.80;;;12.20;99.90;;;;;;4799559;29;20046;-79
2023/09/25 05:00:17;;;;;;;3.33;2.20;;;12.20;99.90;;;;;;4835921;29;20562;-79
2023/09/25 05:02:46;;;;;;;2.33;2.13;;;12.20;99.90;;;;;;4829565;29;20053;-78
2023/09/25 05:05:15;;;;;;;2.60;2.08;;;12.00;99.90;;;;;;4818384;29;20098;-79
2023/09/25 05:07:42;;;;;;;4.07;2.20;;;12.10;99.90;;;;;;4826118;29;20526;-78
2023/09/25 05:10:10;;;;;;;3.15;2.00;;;12.20;99.90;;;;;;4818310;29;20070;-78
2023/09/25 05:12:37;;;;;;;3.97;2.17;;;12.20;99.90;;;;;;4810998;29;20137;-78
2023/09/25 05:15:07;;;;;;;2.97;2.22;;;12.10;99.90;;;;;;4817684;29;20050;-77
2023/09/25 05:17:36;;;;;;;3.90;2.30;;;12.10;99.90;;;;;;4826053;29;20074;-77
2023/09/25 05:20:15;;;;;;;2.95;2.05;;;12.20;99.90;;;;;;4823778;29;20049;-78
2023/09/25 05:22:59;;;;;;;3.10;2.05;;;12.20;99.90;;;;;;4830032;29;20130;-76
2023/09/25 05:25:26;;;;;;;4.07;2.40;;;12.20;99.90;;;;;;4831253;29;20061;-77
2023/09/25 05:27:55;;;;;;;3.30;2.20;;;12.10;99.90;;;;;;4832753;29;20198;-78
2023/09/25 05:30:21;;;;;;;3.58;2.13;;;12.10;99.90;;;;;;4829272;29;20074;-79
2023/09/25 05:32:48;;;;;;;2.50;2.20;;;12.10;99.90;;;;;;4828174;29;20050;-78
2023/09/25 05:35:15;;;;;;;3.72;2.65;;;12.90;99.90;;;;;;4831507;29;20050;-79
2023/09/25 05:37:45;;;;;;;4.45;2.38;;;12.10;99.90;;;;;;4800862;29;20077;-77
2023/09/25 05:40:12;;;;;;;2.97;2.08;;;12.10;99.90;;;;;;4848323;29;20552;-77
2023/09/25 05:42:39;;;;;;;3.83;2.40;;;12.10;99.90;;;;;;4792329;29;20070;-77
2023/09/25 05:45:06;;;;;;;4.30;2.20;;;12.10;99.90;;;;;;4825872;29;20049;-78
2023/09/25 05:47:32;;;;;;;6.07;2.28;;;12.10;99.90;;;;;;4801037;29;20050;-77
2023/09/25 05:49:57;;;;;;;4.45;2.20;;;12.90;99.90;;;;;;4808085;29;20522;-79
2023/09/25 05:52:23;;;;;;;4.82;2.20;;;12.10;99.90;;;;;;4802302;29;20046;-77
2023/09/25 05:54:49;;;;;;;4.40;2.50;;;12.10;99.90;;;;;;4831417;29;20129;-78
2023/09/25 05:57:15;;;;;;;3.33;2.17;;;12.10;99.90;;;;;;4833174;29;20720;-77
2023/09/25 05:59:41;;;;;;;3.25;1.83;;;12.10;99.90;;;;;;4835301;29;20046;-80
2023/09/25 06:02:07;;;;;;;2.67;2.20;;;12.10;99.90;;;;;;4798886;29;20179;-78
2023/09/25 06:04:36;;;;;;;5.05;1.98;;;12.10;99.90;;;;;;4831538;29;20513;-76
2023/09/25 06:07:03;;;;;;;4.65;2.05;;;12.10;99.90;;;;;;4800983;29;20076;-79
2023/09/25 06:09:31;;;;;;;3.35;1.88;;;12.20;99.90;;;;;;4818124;29;20054;-78
2023/09/25 06:11:57;;;;;;;2.05;1.77;;;13.00;99.90;;;;;;4832834;29;20058;-79
2023/09/25 06:14:24;;;;;;;2.97;2.20;;;12.10;99.90;;;;;;4825594;29;20054;-78
2023/09/25 06:16:50;;;;;;;3.35;2.42;;;12.10;99.90;;;;;;4816554;29;20046;-79
2023/09/25 06:19:18;;;;;;;3.75;1.95;;;12.20;99.90;;;;;;4150044;29;10000743;-79
2023/09/25 06:21:45;;;;;;;2.28;2.03;;;12.10;99.90;;;;;;4824700;29;20055;-79
2023/09/25 06:24:12;;;;;;;2.75;2.10;;;12.20;99.90;;;;;;4821138;29;20035;-79
2023/09/25 06:26:39;;;;;;;5.60;2.30;;;12.10;99.90;;;;;;4817883;29;20057;-81
2023/09/25 06:29:08;;;;;;;3.60;1.75;;;12.20;99.90;;;;;;4799586;29;20046;-81
2023/09/25 06:31:36;;;;;;;4.18;2.25;;;12.40;99.90;;;;;;4814494;29;20376;-81
2023/09/25 06:34:03;;;;;;;3.20;1.98;;;12.20;99.90;;;;;;4814877;29;20050;-79
2023/09/25 06:36:28;;;;;;;2.90;1.85;;;12.20;99.90;;;;;;4813881;29;20141;-79
2023/09/25 06:38:54;;;;;;;2.45;1.88;;;12.60;99.90;;;;;;4813530;29;20121;-81
2023/09/25 06:41:20;;;;;;;3.25;2.00;;;12.50;99.90;;;;;;4798633;29;20115;-77
2023/09/25 06:43:46;;;;;;;6.13;1.45;;;12.30;99.90;;;;;;4827022;29;20038;-79
2023/09/25 06:46:12;;;;;;;2.08;1.80;;;12.30;99.90;;;;;;4798926;29;20061;-80
2023/09/25 06:48:38;;;;;;;4.93;1.45;;;12.30;99.90;;;;;;4817620;29;20050;-77
2023/09/25 06:51:03;;;;;;;2.22;1.92;;;12.50;99.90;;;;;;4818160;29;20419;-81
2023/09/25 06:53:29;;;;;;;5.45;2.03;;;12.40;99.90;;;;;;4831245;29;20038;-77
2023/09/25 06:55:55;;;;;;;4.07;2.00;;;12.40;99.90;;;;;;4825928;29;21371;-78
2023/09/25 06:58:21;;;;;;;3.33;1.70;;;12.40;99.90;;;;;;4846948;29;20133;-78
2023/09/25 07:00:46;;;;;;;2.80;1.60;;;12.40;99.90;;;;;;4799620;29;20050;-79
2023/09/25 07:03:12;;;;;;;2.42;1.80;;;12.40;99.90;;;;;;4830011;29;20050;-80
2023/09/25 07:05:40;;;;;;;3.15;2.05;;;12.40;99.90;;;;;;4823409;29;20076;-79
2023/09/25 07:08:05;;;;;;;2.53;1.83;;;12.40;99.90;;;;;;4825999;29;20623;-80
2023/09/25 07:10:31;;;;;;;2.13;1.55;;;12.50;99.90;;;;;;4795107;29;20121;-78
2023/09/25 07:12:57;;;;;;;4.30;1.80;;;12.50;99.90;;;;;;4830699;29;20551;-79
2023/09/25 07:15:23;;;;;;;3.03;2.00;;;12.50;99.90;;;;;;4837462;29;20452;-79
2023/09/25 07:17:48;;;;;;;2.60;1.58;;;12.50;99.90;;;;;;4800099;29;20069;-79
2023/09/25 07:20:14;;;;;;;2.63;2.00;;;12.50;99.90;;;;;;4801039;29;20058;-78
2023/09/25 07:22:41;;;;;;;3.08;1.90;;;12.50;99.90;;;;;;4801335;29;20403;-79
2023/09/25 07:25:07;;;;;;;2.55;1.65;;;13.60;99.90;;;;;;4816050;29;20180;-79
2023/09/25 07:27:33;;;;;;;2.28;1.25;;;12.60;99.90;;;;;;4808390;29;20070;-78
2023/09/25 07:30:01;;;;;;;6.07;2.00;;;12.60;99.90;;;;;;4815015;29;20065;-78
2023/09/25 07:32:28;;;;;;;5.22;2.13;;;12.60;99.90;;;;;;4801200;29;20050;-79
2023/09/25 07:34:54;;;;;;;2.28;1.90;;;12.60;99.90;;;;;;4838987;29;20054;-79
2023/09/25 07:37:19;;;;;;;2.13;1.92;;;12.60;99.90;;;;;;4801147;29;20053;-79
2023/09/25 07:39:45;;;;;;;2.08;1.70;;;13.10;99.90;;;;;;4830170;29;20049;-80
2023/09/25 07:42:12;;;;;;;3.15;2.03;;;12.10;99.90;;;;;;4801870;29;20086;-79
2023/09/25 07:44:38;;;;;;;2.22;1.58;;;12.70;99.90;;;;;;4833817;29;20048;-78
2023/09/25 07:47:10;;;;;;;2.75;1.58;;;12.80;99.90;;;;;;4801870;29;20046;-78
2023/09/25 07:49:40;;;;;;;1.98;1.33;;;12.90;99.90;;;;;;4829599;29;20046;-79
2023/09/25 07:52:15;;;;;;;3.40;1.55;;;11.60;99.90;;;;;;4821851;29;20292;-80
2023/09/25 07:54:48;;;;;;;2.97;1.45;;;12.90;99.90;;;;;;4801479;29;20558;-80
2023/09/25 07:57:15;;;;;;;3.22;1.58;;;13.00;99.90;;;;;;4831126;29;20145;-80
2023/09/25 07:59:45;;;;;;;3.70;1.50;;;13.00;99.90;;;;;;4823583;29;20057;-80
2023/09/25 08:02:12;;;;;;;3.58;1.67;;;13.00;99.90;;;;;;4829531;29;20050;-79
2023/09/25 08:04:38;;;;;;;2.90;1.67;;;13.10;99.90;;;;;;4815533;29;20050;-78
2023/09/25 08:07:04;;;;;;;5.70;1.70;;;13.10;99.90;;;;;;4839249;29;20050;-78
2023/09/25 08:09:33;;;;;;;2.00;1.27;;;13.10;99.90;;;;;;4808257;29;20050;-79
2023/09/25 08:11:59;;;;;;;3.95;1.65;;;13.20;99.90;;;;;;4837932;29;20058;-77
2023/09/25 08:14:25;;;;;;;4.93;1.40;;;13.20;99.90;;;;;;4824621;29;20042;-78
2023/09/25 08:16:51;;;;;;;1.52;1.30;;;13.30;99.90;;;;;;4831832;29;20360;-80
2023/09/25 08:19:18;;;;;;;3.25;1.52;;;13.30;99.90;;;;;;4801220;29;20046;-75
2023/09/25 08:21:44;;;;;;;3.60;1.42;;;13.30;99.90;;;;;;4800363;29;20084;-76
2023/09/25 08:24:10;;;;;;;2.20;1.45;;;13.30;99.90;;;;;;4802253;29;20062;-73
2023/09/25 08:26:36;;;;;;;3.50;1.83;;;13.40;99.90;;;;;;4802446;29;20078;-76
2023/09/25 08:29:05;;;;;;;1.65;1.50;;;13.60;99.90;;;;;;4801848;29;20529;-77
2023/09/25 08:31:32;;;;;;;3.53;1.75;;;13.60;99.90;;;;;;4801644;29;20501;-80
2023/09/25 08:33:58;;;;;;;4.57;1.73;;;13.80;99.90;;;;;;4815966;29;20081;-80
2023/09/25 08:36:24;;;;;;;4.30;1.42;;;13.60;99.90;;;;;;4831882;29;20394;-81
2023/09/25 08:38:49;;;;;;;4.20;1.67;;;13.60;99.90;;;;;;4814194;29;20576;-82
2023/09/25 08:41:19;;;;;;;3.53;1.70;;;13.70;99.90;;;;;;4822321;29;20050;-81
2023/09/25 08:43:45;;;;;;;2.35;1.60;;;13.70;99.90;;;;;;4832871;29;20099;-80
2023/09/25 08:46:11;;;;;;;3.60;1.70;;;14.60;99.90;;;;;;4818759;29;20117;-81
2023/09/25 08:48:37;;;;;;;3.03;1.60;;;13.90;99.90;;;;;;4807554;29;20061;-81
2023/09/25 08:51:04;;;;;;;4.05;1.90;;;14.00;99.90;;;;;;4822730;29;20050;-80
2023/09/25 08:53:29;;;;;;;2.08;1.65;;;14.00;99.90;;;;;;4821272;29;20054;-80
2023/09/25 08:55:56;;;;;;;3.75;1.83;;;14.20;99.90;;;;;;4817298;29;20495;-80
2023/09/25 08:58:24;;;;;;;2.33;1.67;;;14.20;99.90;;;;;;4818991;29;20042;-86
2023/09/25 09:00:50;;;;;;;4.40;1.38;;;15.10;99.90;;;;;;4832794;29;20066;-78
2023/09/25 09:03:16;;;;;;;5.88;1.65;;;14.30;99.90;;;;;;4802505;29;20475;-78
2023/09/25 09:05:42;;;;;;;3.42;1.60;;;14.40;99.90;;;;;;4843154;29;20131;-78
2023/09/25 09:08:10;;;;;;;5.03;1.67;;;14.60;99.90;;;;;;4825227;29;20038;-77
2023/09/25 09:10:40;;;;;;;3.13;1.65;;;14.50;99.90;;;;;;4819811;29;20120;-79
2023/09/25 09:13:10;;;;;;;2.10;1.52;;;14.60;99.90;;;;;;4814332;29;20456;-79
2023/09/25 09:15:37;;;;;;;4.57;1.30;;;14.60;99.90;;;;;;4819645;29;20057;-79
2023/09/25 09:18:17;;;;;;;2.00;1.27;;;14.80;99.90;;;;;;4816522;29;20438;-77
2023/09/25 09:20:43;;;;;;;1.77;1.13;;;14.70;99.90;;;;;;4813063;29;20113;-76
2023/09/25 09:23:10;;;;;;;3.92;1.90;;;14.90;99.90;;;;;;4818073;29;20139;-77
2023/09/25 09:25:35;;;;;;;6.47;1.38;;;14.90;99.90;;;;;;4800680;29;20145;-75
2023/09/25 09:28:05;;;;;;;4.57;1.50;;;15.00;99.90;;;;;;4815764;29;20089;-77
2023/09/25 09:30:31;;;;;;;3.40;1.60;;;15.00;99.90;;;;;;4802049;29;20167;-78
2023/09/25 09:32:58;;;;;;;4.15;1.40;;;15.00;99.90;;;;;;4829687;29;20265;-77
2023/09/25 09:35:27;;;;;;;4.00;1.77;;;15.00;99.90;;;;;;4823484;29;20115;-77
2023/09/25 09:37:54;;;;;;;4.55;1.38;;;15.10;99.90;;;;;;4809317;29;20038;-77
2023/09/25 09:40:21;;;;;;;2.38;1.42;;;15.20;99.90;;;;;;4825342;29;20145;-77
2023/09/25 09:42:50;;;;;;;3.22;1.15;;;15.20;99.90;;;;;;4820253;29;20054;-77
2023/09/25 09:45:19;;;;;;;2.20;1.52;;;15.30;99.90;;;;;;4822191;29;20043;-76
2023/09/25 09:47:48;;;;;;;2.00;1.10;;;15.30;99.90;;;;;;4795216;29;20049;-78
2023/09/25 09:50:22;;;;;;;2.28;1.17;;;15.50;99.90;;;;;;4810748;29;20061;-77
2023/09/25 09:52:49;;;;;;;3.22;1.58;;;15.50;99.90;;;;;;4821435;29;20051;-76
2023/09/25 09:55:15;;;;;;;2.80;1.38;;;15.90;99.90;;;;;;4798836;29;20129;-76
2023/09/25 09:57:42;;;;;;;3.42;1.20;;;15.60;99.90;;;;;;4825156;29;20046;-77
2023/09/25 10:00:09;;;;;;;2.42;1.20;;;15.70;99.90;;;;;;4824676;29;20034;-77
2023/09/25 10:02:36;;;;;;;3.85;1.42;;;15.80;99.90;;;;;;4823668;29;20046;-77
2023/09/25 10:05:05;;;;;;;3.53;1.08;;;15.80;99.90;;;;;;4807150;29;20042;-81
2023/09/25 10:07:31;;;;;;;2.85;1.27;;;15.90;99.90;;;;;;4792268;29;20051;-77
2023/09/25 10:10:04;;;;;;;3.40;1.40;;;15.90;99.90;;;;;;4825097;29;20250;-77
2023/09/25 10:12:38;;;;;;;3.27;1.57;;;16.00;99.90;;;;;;4808132;29;20058;-78
2023/09/25 10:15:07;;;;;;;2.08;1.27;;;16.10;99.90;;;;;;4822133;29;20050;-77
2023/09/25 10:17:41;;;;;;;4.32;1.42;;;16.10;99.90;;;;;;4839001;29;20092;-78
2023/09/25 10:20:45;;;;;;;4.88;1.88;;;16.20;99.90;;;;;;4809241;29;20071;-77
2023/09/25 10:23:32;;;;;;;3.83;1.65;;;16.30;99.90;;;;;;4817389;29;20042;-78
2023/09/25 10:26:02;;;;;;;2.15;1.05;;;16.30;99.90;;;;;;4825625;29;20091;-78
2023/09/25 10:28:33;;;;;;;2.20;1.17;;;16.40;99.90;;;;;;4818848;29;20046;-77
2023/09/25 10:31:01;;;;;;;1.85;1.13;;;16.50;99.90;;;;;;4829145;29;20502;-78
2023/09/25 10:33:37;;;;;;;2.80;1.23;;;16.50;99.90;;;;;;4812632;29;20085;-77
2023/09/25 10:36:05;;;;;;;3.03;0.98;;;16.60;99.90;;;;;;4825893;29;20142;-78
2023/09/25 10:38:36;;;;;;;2.17;1.35;;;16.60;99.90;;;;;;4811977;29;20051;-78
2023/09/25 10:41:11;;;;;;;4.22;1.20;;;16.70;99.90;;;;;;4797775;29;20406;-77
2023/09/25 10:43:38;;;;;;;5.07;1.40;;;16.70;99.90;;;;;;4796439;29;20112;-78
2023/09/25 10:46:07;;;;;;;7.00;1.73;;;16.80;99.90;;;;;;4811062;29;20508;-77
2023/09/25 10:48:33;;;;;;;1.88;1.25;;;16.80;99.90;;;;;;4825749;29;20071;-78
2023/09/25 10:50:59;;;;;;;1.65;1.27;;;16.90;99.90;;;;;;4843876;29;20054;-79
2023/09/25 10:53:26;;;;;;;2.72;1.50;;;17.00;99.90;;;;;;4812621;29;20049;-78
2023/09/25 10:55:53;;;;;;;3.20;1.40;;;17.00;99.90;;;;;;4820270;29;20507;-78
2023/09/25 10:58:21;;;;;;;2.15;1.30;;;17.10;99.90;;;;;;4812991;29;20054;-79
2023/09/25 11:00:52;;;;;;;2.85;1.45;;;17.10;99.90;;;;;;4812760;29;20058;-78
2023/09/25 11:03:18;;;;;;;2.53;1.35;;;17.20;99.90;;;;;;4812234;29;20265;-79
2023/09/25 11:05:44;;;;;;;2.05;1.27;;;17.30;99.90;;;;;;4795086;29;20043;-79
2023/09/25 11:08:15;;;;;;;1.50;1.10;;;17.40;99.90;;;;;;4840041;29;20048;-79
2023/09/25 11:10:42;;;;;;;2.38;1.05;;;17.40;99.90;;;;;;4826496;29;20047;-78
2023/09/25 11:13:08;;;;;;;5.22;1.60;;;17.40;99.90;;;;;;4798098;29;20411;-78
2023/09/25 11:15:38;;;;;;;1.77;1.15;;;17.50;99.90;;;;;;4795771;29;20525;-76
2023/09/25 11:18:07;;;;;;;4.18;1.67;;;17.60;99.90;;;;;;4824754;29;20051;-78
2023/09/25 11:20:33;;;;;;;2.95;1.48;;;17.60;99.90;;;;;;4825996;29;20050;-78
2023/09/25 11:23:09;;;;;;;2.72;1.38;;;17.60;99.90;;;;;;4827467;29;20061;-77
2023/09/25 11:25:40;;;;;;;3.63;1.58;;;17.70;99.90;;;;;;4796006;29;20399;-79
2023/09/25 11:28:07;;;;;;;6.00;1.42;;;17.70;99.90;;;;;;4824175;29;20284;-79
2023/09/25 11:30:34;;;;;;;3.58;1.50;;;17.80;99.90;;;;;;4825220;29;20097;-78
2023/09/25 11:33:07;;;;;;;3.25;1.50;;;17.80;99.90;;;;;;4796943;29;20081;-78
2023/09/25 11:35:37;;;;;;;2.17;1.42;;;17.80;99.90;;;;;;4826294;29;20488;-79
2023/09/25 11:38:12;;;;;;;1.30;1.17;;;17.80;99.90;;;;;;4823758;29;20129;-78
2023/09/25 11:40:38;;;;;;;3.45;1.40;;;17.80;99.90;;;;;;4826216;29;20052;-78
2023/09/25 11:43:05;;;;;;;2.55;1.27;;;17.80;99.90;;;;;;4827522;29;20050;-79
2023/09/25 11:45:31;;;;;;;4.93;1.77;;;17.80;99.90;;;;;;4795528;29;20079;-77
2023/09/25 11:47:57;;;;;;;4.53;2.17;;;17.80;99.90;;;;;;4824450;29;20047;-78
2023/09/25 11:50:23;;;;;;;4.43;1.70;;;17.70;99.90;;;;;;4825052;29;20050;-79
2023/09/25 11:52:48;;;;;;;8.43;2.40;;;17.90;99.90;;;;;;4811222;29;20559;-78
2023/09/25 11:55:14;;;;;;;5.45;1.38;;;18.00;99.90;;;;;;4827419;29;20073;-78
2023/09/25 11:57:44;;;;;;;5.78;1.58;;;18.00;99.90;;;;;;4794534;29;20517;-78
2023/09/25 12:00:18;;;;;;;4.60;1.40;;;18.10;99.90;;;;;;4839973;29;20050;-78
2023/09/25 12:02:46;;;;;;;1.63;1.30;;;18.30;99.90;;;;;;4826735;29;20047;-78
2023/09/25 12:05:12;;;;;;;3.08;1.25;;;18.50;99.90;;;;;;4827284;29;20387;-79
2023/09/25 12:07:38;;;;;;;2.75;1.25;;;18.70;99.90;;;;;;4795136;29;20057;-79
2023/09/25 12:10:05;;;;;;;4.25;1.80;;;18.80;99.90;;;;;;4824113;29;20226;-78
2023/09/25 12:12:44;;;;;;;3.72;1.27;;;19.00;99.90;;;;;;4809199;29;20051;-77
2023/09/25 12:15:11;;;;;;;2.95;1.17;;;19.10;99.90;;;;;;4798865;29;20043;-79
2023/09/25 12:17:38;;;;;;;2.28;1.17;;;19.20;99.90;;;;;;4840789;29;20070;-79
2023/09/25 12:20:13;;;;;;;5.75;1.33;;;19.30;99.90;;;;;;4792868;29;20200;-78
2023/09/25 12:22:45;;;;;;;9.88;1.38;;;19.30;99.90;;;;;;4825781;29;20046;-79
2023/09/25 12:25:13;;;;;;;4.55;1.60;;;19.30;99.90;;;;;;4797211;29;20403;-79
2023/09/25 12:27:43;;;;;;;6.53;1.40;;;19.30;99.90;;;;;;4824542;29;20130;-78
2023/09/25 12:30:11;;;;;;;2.88;0.88;;;19.30;99.90;;;;;;4823983;29;20035;-78
2023/09/25 12:32:38;;;;;;;1.55;1.10;;;19.20;99.90;;;;;;4825074;29;20415;-77
2023/09/25 12:35:05;;;;;;;4.38;1.35;;;19.20;99.90;;;;;;4795548;29;20045;-78
2023/09/25 12:37:31;;;;;;;9.00;1.65;;;19.10;99.90;;;;;;4826228;29;20054;-75
2023/09/25 12:40:00;;;;;;;6.20;1.35;;;19.00;99.90;;;;;;4808079;29;20399;-78
2023/09/25 12:42:28;;;;;;;8.85;2.08;;;19.10;99.90;;;;;;4824169;29;20103;-78
2023/09/25 12:44:54;;;;;;;4.63;1.50;;;19.00;99.90;;;;;;4795522;29;20061;-78
2023/09/25 12:47:21;;;;;;;4.43;1.40;;;19.00;99.90;;;;;;4795622;29;20153;-77